createdAt,value
2017-07-21T02:36:15.131Z,0
2017-07-21T02:36:36.891Z,0
2017-07-21T02:37:37.185Z,0
2017-07-21T02:38:37.187Z,0
2017-07-21T02:39:37.195Z,0
2017-07-21T02:40:36.883Z,0
2017-07-21T02:41:36.586Z,0
2017-07-21T02:42:36.591Z,0
2017-07-21T02:43:37.193Z,0
2017-07-21T02:44:37.301Z,0
2017-07-21T02:45:37.855Z,0
2017-07-21T02:46:37.219Z,0
2017-07-21T02:47:37.204Z,0
2017-07-21T02:48:36.898Z,0
2017-07-21T02:49:37.205Z,0
2017-07-21T02:50:36.898Z,0
2017-07-21T02:51:37.253Z,0
2017-07-21T02:52:36.609Z,0
2017-07-21T02:53:37.018Z,0
2017-07-21T02:54:37.281Z,0
2017-07-21T02:55:37.080Z,0
2017-07-21T02:56:37.554Z,0
2017-07-21T02:57:37.704Z,0
2017-07-21T02:58:37.378Z,0
2017-07-21T02:59:37.006Z,0
2017-07-21T03:00:36.917Z,0
2017-07-21T03:01:37.236Z,0
2017-07-21T03:02:37.231Z,0
2017-07-21T03:03:37.236Z,0
2017-07-21T03:04:37.235Z,0
2017-07-21T03:05:37.717Z,0
2017-07-21T03:06:37.087Z,0
2017-07-21T03:07:36.954Z,0
2017-07-21T03:08:37.386Z,0
2017-07-21T03:09:37.984Z,0
2017-07-21T03:10:37.702Z,0
2017-07-21T03:11:37.958Z,0
2017-07-21T03:12:37.475Z,0
2017-07-21T03:13:37.004Z,0
2017-07-21T03:14:36.669Z,0
2017-07-21T03:15:37.168Z,0
2017-07-21T03:16:37.343Z,0
2017-07-21T03:17:36.796Z,0
2017-07-21T03:18:37.323Z,0
2017-07-21T03:19:37.514Z,0
2017-07-21T03:20:37.611Z,0
2017-07-21T03:21:38.332Z,0
2017-07-21T03:22:37.339Z,0
2017-07-21T03:23:37.363Z,0
2017-07-21T03:24:37.321Z,0
2017-07-21T03:25:37.404Z,0
2017-07-21T03:26:36.997Z,0
2017-07-21T03:27:37.105Z,0
2017-07-21T03:28:37.947Z,0
2017-07-21T03:29:38.143Z,0
2017-07-21T03:30:37.750Z,0
2017-07-21T03:31:37.710Z,0
2017-07-21T03:32:37.279Z,0
2017-07-21T03:33:37.275Z,0
2017-07-21T03:34:37.279Z,0
2017-07-21T03:35:36.986Z,0
2017-07-21T03:36:37.490Z,0
2017-07-21T03:37:36.988Z,0
2017-07-21T03:38:37.294Z,5
2017-07-21T03:39:37.304Z,5
2017-07-21T03:40:36.994Z,5
2017-07-21T03:41:37.308Z,5
2017-07-21T03:42:37.319Z,5
2017-07-21T03:43:37.308Z,5
2017-07-21T03:44:37.299Z,5
2017-07-21T03:45:37.299Z,5
2017-07-21T03:46:37.314Z,5
2017-07-21T03:47:37.320Z,5
2017-07-21T03:48:37.010Z,10
2017-07-21T03:49:37.019Z,10
2017-07-21T03:50:37.316Z,10
2017-07-21T03:51:37.365Z,10
2017-07-21T03:52:37.026Z,10
2017-07-21T03:53:37.314Z,15
2017-07-21T03:54:37.320Z,15
2017-07-21T03:55:37.027Z,15
2017-07-21T03:56:37.024Z,15
2017-07-21T03:57:37.319Z,20
2017-07-21T03:58:37.326Z,20
2017-07-21T03:59:37.329Z,20
2017-07-21T04:00:37.339Z,20
2017-07-21T04:01:37.333Z,20
2017-07-21T04:02:37.349Z,25
2017-07-21T04:03:37.349Z,25
2017-07-21T04:04:37.345Z,25
2017-07-21T04:05:37.463Z,30
2017-07-21T04:06:42.201Z,30
2017-07-21T04:07:37.352Z,30
2017-07-21T04:08:37.355Z,30
2017-07-21T04:09:37.359Z,35
2017-07-21T04:10:37.067Z,35
2017-07-21T04:11:37.354Z,35
2017-07-21T04:12:37.358Z,40
2017-07-21T04:13:37.360Z,40
2017-07-21T04:14:37.061Z,40
2017-07-21T04:15:37.063Z,45
2017-07-21T04:16:37.069Z,45
2017-07-21T04:17:37.369Z,50
2017-07-21T04:18:37.079Z,50
2017-07-21T04:19:37.065Z,50
2017-07-21T04:20:37.070Z,55
2017-07-21T04:21:37.373Z,55
2017-07-21T04:22:37.420Z,55
2017-07-21T04:23:37.387Z,60
2017-07-21T04:24:37.099Z,65
2017-07-21T04:25:37.130Z,90
2017-07-21T04:26:37.425Z,100
2017-07-21T04:27:37.392Z,105
2017-07-21T04:28:37.393Z,110
2017-07-21T04:29:37.406Z,115
2017-07-21T04:30:37.089Z,120
2017-07-21T04:31:37.415Z,125
2017-07-21T04:32:37.098Z,130
2017-07-21T04:33:37.396Z,135
2017-07-21T04:34:37.118Z,135
2017-07-21T04:35:37.415Z,130
2017-07-21T04:36:37.432Z,135
2017-07-21T04:37:39.040Z,140
2017-07-21T04:38:37.428Z,145
2017-07-21T04:39:37.436Z,150
2017-07-21T04:40:37.127Z,155
2017-07-21T04:41:37.450Z,160
2017-07-21T04:42:37.449Z,160
2017-07-21T04:43:37.135Z,155
2017-07-21T04:44:37.445Z,155
2017-07-21T04:45:36.849Z,160
2017-07-21T04:46:37.446Z,155
2017-07-21T04:47:37.162Z,160
2017-07-21T04:48:37.473Z,170
2017-07-21T04:49:37.159Z,155
2017-07-21T04:50:37.173Z,85
2017-07-21T04:51:36.573Z,80
2017-07-21T04:52:36.930Z,95
2017-07-21T04:53:37.483Z,130
2017-07-21T04:54:37.514Z,115
2017-07-21T04:55:37.196Z,110
2017-07-21T04:56:37.496Z,85
2017-07-21T04:57:37.503Z,85
2017-07-21T04:58:37.509Z,90
2017-07-21T04:59:36.907Z,85
2017-07-21T05:00:37.224Z,85
2017-07-21T05:01:37.223Z,85
2017-07-21T05:02:37.532Z,85
2017-07-21T05:03:37.223Z,90
2017-07-21T05:04:36.938Z,95
2017-07-21T05:05:37.235Z,100
2017-07-21T05:06:37.233Z,100
2017-07-21T05:07:37.599Z,105
2017-07-21T05:08:37.241Z,110
2017-07-21T05:09:37.244Z,110
2017-07-21T05:10:37.553Z,115
2017-07-21T05:11:37.559Z,120
2017-07-21T05:12:37.563Z,120
2017-07-21T05:13:37.266Z,120
2017-07-21T05:14:37.267Z,125
2017-07-21T05:15:37.565Z,150
2017-07-21T05:16:37.289Z,135
2017-07-21T05:17:37.292Z,140
2017-07-21T05:18:37.285Z,140
2017-07-21T05:19:36.683Z,210
2017-07-21T05:20:37.606Z,150
2017-07-21T05:21:37.302Z,150
2017-07-21T05:22:37.654Z,165
2017-07-21T05:23:37.307Z,170
2017-07-21T05:24:37.010Z,165
2017-07-21T05:25:37.614Z,145
2017-07-21T05:26:37.618Z,135
2017-07-21T05:27:37.632Z,135
2017-07-21T05:28:37.624Z,130
2017-07-21T05:29:37.338Z,130
2017-07-21T05:30:37.334Z,130
2017-07-21T05:31:37.644Z,130
2017-07-21T05:32:37.654Z,130
2017-07-21T05:33:37.648Z,130
2017-07-21T05:34:37.341Z,135
2017-07-21T05:35:37.650Z,130
2017-07-21T05:36:37.645Z,125
2017-07-21T05:37:37.705Z,125
2017-07-21T05:38:37.682Z,125
2017-07-21T05:39:37.673Z,125
2017-07-21T05:40:37.672Z,120
2017-07-21T05:41:37.692Z,120
2017-07-21T05:42:37.677Z,120
2017-07-21T05:43:37.398Z,120
2017-07-21T05:44:37.696Z,125
2017-07-21T05:45:37.694Z,130
2017-07-21T05:46:37.390Z,125
2017-07-21T05:47:37.703Z,125
2017-07-21T05:48:37.414Z,125
2017-07-21T05:49:37.711Z,130
2017-07-21T05:50:36.804Z,130
2017-07-21T05:51:37.724Z,130
2017-07-21T05:52:37.763Z,130
2017-07-21T05:53:37.730Z,130
2017-07-21T05:54:37.741Z,130
2017-07-21T05:55:37.444Z,135
2017-07-21T05:56:37.737Z,135
2017-07-21T05:57:37.729Z,140
2017-07-21T05:58:37.732Z,140
2017-07-21T05:59:37.142Z,140
2017-07-21T06:00:37.761Z,145
2017-07-21T06:01:37.766Z,155
2017-07-21T06:02:37.464Z,145
2017-07-21T06:03:37.784Z,140
2017-07-21T06:04:37.771Z,130
2017-07-21T06:05:37.458Z,125
2017-07-21T06:06:37.786Z,130
2017-07-21T06:07:37.830Z,135
2017-07-21T06:08:37.490Z,135
2017-07-21T06:09:37.786Z,140
2017-07-21T06:10:37.183Z,145
2017-07-21T06:11:37.790Z,160
2017-07-21T06:12:37.496Z,175
2017-07-21T06:13:37.194Z,325
2017-07-21T06:14:37.801Z,305
2017-07-21T06:15:37.507Z,215
2017-07-21T06:16:37.520Z,315
2017-07-21T06:17:37.511Z,215
2017-07-21T06:18:37.819Z,210
2017-07-21T06:19:37.220Z,205
2017-07-21T06:20:37.825Z,330
2017-07-21T06:21:37.529Z,220
2017-07-21T06:22:37.890Z,325
2017-07-21T06:23:37.835Z,340
2017-07-21T06:24:37.834Z,360
2017-07-21T06:25:37.842Z,345
2017-07-21T06:26:37.548Z,370
2017-07-21T06:27:37.875Z,235
2017-07-21T06:28:37.871Z,265
2017-07-21T06:29:37.874Z,290
2017-07-21T06:30:37.875Z,370
2017-07-21T06:31:37.269Z,390
2017-07-21T06:32:37.887Z,310
2017-07-21T06:33:37.902Z,420
2017-07-21T06:34:37.901Z,365
2017-07-21T06:35:37.907Z,290
2017-07-21T06:36:37.912Z,380
2017-07-21T06:37:37.665Z,375
2017-07-21T06:38:37.935Z,285
2017-07-21T06:39:37.940Z,275
2017-07-21T06:40:37.943Z,300
2017-07-21T06:41:37.953Z,255
2017-07-21T06:42:37.949Z,245
2017-07-21T06:43:37.652Z,245
2017-07-21T06:44:37.658Z,250
2017-07-21T06:45:37.969Z,280
2017-07-21T06:46:37.979Z,325
2017-07-21T06:47:37.683Z,320
2017-07-21T06:48:38.014Z,335
2017-07-21T06:49:37.693Z,390
2017-07-21T06:50:38.010Z,340
2017-07-21T06:51:37.414Z,310
2017-07-21T06:52:37.915Z,265
2017-07-21T06:53:38.017Z,265
2017-07-21T06:54:37.740Z,265
2017-07-21T06:55:37.736Z,270
2017-07-21T06:56:37.756Z,255
2017-07-21T06:57:38.050Z,260
2017-07-21T06:58:38.073Z,245
2017-07-21T06:59:37.463Z,230
2017-07-21T07:00:38.081Z,235
2017-07-21T07:01:38.078Z,300
2017-07-21T07:02:38.077Z,245
2017-07-21T07:03:38.083Z,250
2017-07-21T07:04:38.093Z,260
2017-07-21T07:05:38.114Z,255
2017-07-21T07:06:37.499Z,260
2017-07-21T07:07:38.159Z,285
2017-07-21T07:08:38.118Z,260
2017-07-21T07:09:37.829Z,270
2017-07-21T07:10:38.128Z,310
2017-07-21T07:11:37.658Z,350
2017-07-21T07:12:37.248Z,405
2017-07-21T07:13:37.850Z,335
2017-07-21T07:14:37.916Z,330
2017-07-21T07:15:38.216Z,335
2017-07-21T07:16:37.608Z,355
2017-07-21T07:17:38.185Z,360
2017-07-21T07:18:37.882Z,335
2017-07-21T07:19:38.186Z,350
2017-07-21T07:20:37.929Z,360
2017-07-21T07:21:37.611Z,370
2017-07-21T07:22:37.919Z,375
2017-07-21T07:23:41.166Z,385
2017-07-21T07:24:38.224Z,375
2017-07-21T07:25:37.926Z,375
2017-07-21T07:26:38.258Z,370
2017-07-21T07:27:38.264Z,350
2017-07-21T07:28:37.972Z,415
2017-07-21T07:29:37.953Z,355
2017-07-21T07:30:37.668Z,325
2017-07-21T07:31:38.276Z,405
2017-07-21T07:32:37.988Z,430
2017-07-21T07:33:38.283Z,440
2017-07-21T07:34:38.284Z,435
2017-07-21T07:35:38.013Z,430
2017-07-21T07:36:38.016Z,425
2017-07-21T07:37:38.337Z,445
2017-07-21T07:38:38.402Z,425
2017-07-21T07:39:38.036Z,400
2017-07-21T07:40:38.038Z,375
2017-07-21T07:41:38.054Z,375
2017-07-21T07:42:38.371Z,390
2017-07-21T07:43:38.369Z,395
2017-07-21T07:44:37.470Z,425
2017-07-21T07:45:38.095Z,405
2017-07-21T07:46:38.103Z,395
2017-07-21T07:47:38.095Z,405
2017-07-21T07:48:38.105Z,330
2017-07-21T07:49:38.413Z,315
2017-07-21T07:50:38.134Z,305
2017-07-21T07:51:38.429Z,305
2017-07-21T07:52:38.160Z,305
2017-07-21T07:53:39.964Z,290
2017-07-21T07:54:38.154Z,295
2017-07-21T07:55:38.473Z,295
2017-07-21T07:56:37.886Z,300
2017-07-21T07:57:38.188Z,320
2017-07-21T07:58:38.214Z,300
2017-07-21T07:59:38.511Z,295
2017-07-21T08:00:38.203Z,300
2017-07-21T08:01:38.511Z,345
2017-07-21T08:02:38.526Z,310
2017-07-21T08:03:38.542Z,305
2017-07-21T08:04:38.249Z,355
2017-07-21T08:05:38.548Z,305
2017-07-21T08:06:38.565Z,345
2017-07-21T08:07:38.574Z,345
2017-07-21T08:08:38.325Z,305
2017-07-21T08:09:38.570Z,305
2017-07-21T08:10:37.991Z,310
2017-07-21T08:11:38.285Z,375
2017-07-21T08:12:38.605Z,330
2017-07-21T08:13:38.309Z,325
2017-07-21T08:14:38.301Z,325
2017-07-21T08:15:38.638Z,330
2017-07-21T08:16:38.329Z,335
2017-07-21T08:17:38.327Z,360
2017-07-21T08:18:38.326Z,355
2017-07-21T08:19:38.349Z,355
2017-07-21T08:20:38.054Z,365
2017-07-21T08:21:38.348Z,355
2017-07-21T08:22:38.662Z,355
2017-07-21T08:23:39.373Z,360
2017-07-21T08:24:38.704Z,355
2017-07-21T08:25:38.690Z,355
2017-07-21T08:26:38.703Z,365
2017-07-21T08:27:38.712Z,365
2017-07-21T08:28:38.429Z,405
2017-07-21T08:29:38.408Z,370
2017-07-21T08:30:38.444Z,405
2017-07-21T08:31:38.745Z,415
2017-07-21T08:32:38.438Z,380
2017-07-21T08:33:38.751Z,390
2017-07-21T08:34:38.768Z,420
2017-07-21T08:35:38.781Z,420
2017-07-21T08:36:38.467Z,380
2017-07-21T08:37:38.484Z,365
2017-07-21T08:38:37.887Z,365
2017-07-21T08:39:38.807Z,380
2017-07-21T08:40:38.832Z,375
2017-07-21T08:41:38.829Z,375
2017-07-21T08:42:38.511Z,395
2017-07-21T08:43:38.241Z,415
2017-07-21T08:44:38.843Z,405
2017-07-21T08:45:38.240Z,395
2017-07-21T08:46:38.546Z,380
2017-07-21T08:47:38.551Z,360
2017-07-21T08:48:38.244Z,350
2017-07-21T08:49:38.272Z,340
2017-07-21T08:50:38.637Z,330
2017-07-21T08:51:38.912Z,320
2017-07-21T08:52:38.903Z,315
2017-07-21T08:53:38.607Z,310
2017-07-21T08:54:44.109Z,300
2017-07-21T08:55:38.939Z,295
2017-07-21T08:56:38.021Z,285
2017-07-21T08:57:38.964Z,285
2017-07-21T08:58:38.652Z,280
2017-07-21T08:59:38.991Z,280
2017-07-21T09:00:38.378Z,280
2017-07-21T09:01:38.662Z,275
2017-07-21T09:02:38.976Z,270
2017-07-21T09:03:38.713Z,270
2017-07-21T09:04:38.708Z,270
2017-07-21T09:05:38.704Z,260
2017-07-21T09:06:39.007Z,260
2017-07-21T09:07:39.029Z,250
2017-07-21T09:08:38.733Z,245
2017-07-21T09:09:39.102Z,240
2017-07-21T09:10:39.052Z,240
2017-07-21T09:11:38.739Z,235
2017-07-21T09:12:39.063Z,240
2017-07-21T09:13:39.054Z,230
2017-07-21T09:14:39.071Z,230
2017-07-21T09:15:38.769Z,230
2017-07-21T09:16:39.106Z,230
2017-07-21T09:17:39.090Z,230
2017-07-21T09:18:38.797Z,230
2017-07-21T09:19:38.808Z,230
2017-07-21T09:20:39.105Z,230
2017-07-21T09:21:38.804Z,225
2017-07-21T09:22:39.120Z,225
2017-07-21T09:23:38.820Z,225
2017-07-21T09:24:41.331Z,225
2017-07-21T09:25:38.829Z,225
2017-07-21T09:26:38.835Z,225
2017-07-21T09:27:39.169Z,225
2017-07-21T09:28:39.149Z,225
2017-07-21T09:29:38.864Z,230
2017-07-21T09:30:38.853Z,225
2017-07-21T09:31:39.169Z,225
2017-07-21T09:32:39.177Z,230
2017-07-21T09:33:39.203Z,225
2017-07-21T09:34:39.268Z,225
2017-07-21T09:35:38.970Z,220
2017-07-21T09:36:39.202Z,225
2017-07-21T09:37:38.615Z,220
2017-07-21T09:38:38.906Z,220
2017-07-21T09:39:40.264Z,220
2017-07-21T09:40:38.923Z,220
2017-07-21T09:41:39.239Z,220
2017-07-21T09:42:39.233Z,220
2017-07-21T09:43:38.962Z,220
2017-07-21T09:44:38.954Z,220
2017-07-21T09:45:38.972Z,220
2017-07-21T09:46:39.258Z,220
2017-07-21T09:47:39.263Z,220
2017-07-21T09:48:39.271Z,220
2017-07-21T09:49:38.973Z,220
2017-07-21T09:50:39.009Z,220
2017-07-21T09:51:38.997Z,220
2017-07-21T09:52:39.288Z,220
2017-07-21T09:53:39.325Z,220
2017-07-21T09:54:39.749Z,220
2017-07-21T09:55:39.323Z,220
2017-07-21T09:56:39.018Z,220
2017-07-21T09:57:39.322Z,220
2017-07-21T09:58:39.033Z,220
2017-07-21T09:59:38.724Z,220
2017-07-21T10:00:39.339Z,220
2017-07-21T10:01:38.743Z,220
2017-07-21T10:02:39.345Z,220
2017-07-21T10:03:39.371Z,220
2017-07-21T10:04:39.361Z,220
2017-07-21T10:05:39.090Z,220
2017-07-21T10:06:38.779Z,215
2017-07-21T10:07:38.781Z,215
2017-07-21T10:08:39.391Z,215
2017-07-21T10:09:39.394Z,220
2017-07-21T10:10:39.454Z,215
2017-07-21T10:11:39.100Z,215
2017-07-21T10:12:39.104Z,215
2017-07-21T10:13:39.450Z,215
2017-07-21T10:14:39.154Z,215
2017-07-21T10:15:39.201Z,215
2017-07-21T10:16:39.494Z,215
2017-07-21T10:17:39.128Z,215
2017-07-21T10:18:39.452Z,215
2017-07-21T10:19:39.470Z,215
2017-07-21T10:20:39.152Z,215
2017-07-21T10:21:39.462Z,215
2017-07-21T10:22:39.465Z,215
2017-07-21T10:23:39.470Z,215
2017-07-21T10:24:39.197Z,215
2017-07-21T10:25:39.760Z,215
2017-07-21T10:26:39.503Z,215
2017-07-21T10:27:39.498Z,215
2017-07-21T10:28:39.498Z,215
2017-07-21T10:29:39.517Z,215
2017-07-21T10:30:39.208Z,215
2017-07-21T10:31:38.913Z,215
2017-07-21T10:32:39.539Z,215
2017-07-21T10:33:39.530Z,215
2017-07-21T10:34:38.933Z,220
2017-07-21T10:35:39.556Z,220
2017-07-21T10:36:39.577Z,220
2017-07-21T10:37:39.260Z,215
2017-07-21T10:38:39.262Z,215
2017-07-21T10:39:39.570Z,215
2017-07-21T10:40:43.925Z,190
2017-07-21T10:41:39.577Z,215
2017-07-21T10:42:39.590Z,215
2017-07-21T10:43:39.295Z,215
2017-07-21T10:44:39.598Z,220
2017-07-21T10:45:39.303Z,220
2017-07-21T10:46:39.308Z,220
2017-07-21T10:47:39.008Z,220
2017-07-21T10:48:39.646Z,220
2017-07-21T10:49:39.642Z,215
2017-07-21T10:50:39.331Z,215
2017-07-21T10:51:39.642Z,220
2017-07-21T10:52:39.653Z,220
2017-07-21T10:53:39.647Z,220
2017-07-21T10:54:39.086Z,215
2017-07-21T10:55:43.176Z,225
2017-07-21T10:56:39.675Z,220
2017-07-21T10:57:39.723Z,225
2017-07-21T10:58:39.378Z,230
2017-07-21T10:59:39.390Z,235
2017-07-21T11:00:39.707Z,240
2017-07-21T11:01:39.701Z,245
2017-07-21T11:02:39.702Z,245
2017-07-21T11:03:39.108Z,250
2017-07-21T11:04:39.429Z,245
2017-07-21T11:05:39.425Z,245
2017-07-21T11:06:39.433Z,240
2017-07-21T11:07:39.131Z,240
2017-07-21T11:08:39.436Z,230
2017-07-21T11:09:39.742Z,240
2017-07-21T11:10:39.756Z,240
2017-07-21T11:11:39.516Z,240
2017-07-21T11:12:39.763Z,245
2017-07-21T11:13:39.778Z,240
2017-07-21T11:14:39.173Z,245
2017-07-21T11:15:39.780Z,250
2017-07-21T11:16:39.787Z,250
2017-07-21T11:17:39.187Z,215
2017-07-21T11:18:39.507Z,205
2017-07-21T11:19:39.829Z,205
2017-07-21T11:20:39.518Z,235
2017-07-21T11:21:39.520Z,205
2017-07-21T11:22:39.541Z,255
2017-07-21T11:23:39.541Z,255
2017-07-21T11:24:39.548Z,250
2017-07-21T11:25:39.850Z,245
2017-07-21T11:26:41.580Z,250
2017-07-21T11:27:39.867Z,200
2017-07-21T11:28:39.871Z,200
2017-07-21T11:29:39.867Z,225
2017-07-21T11:30:39.583Z,200
2017-07-21T11:31:39.586Z,250
2017-07-21T11:32:39.588Z,255
2017-07-21T11:33:39.293Z,215
2017-07-21T11:34:39.670Z,230
2017-07-21T11:35:39.920Z,250
2017-07-21T11:36:39.619Z,245
2017-07-21T11:37:39.923Z,245
2017-07-21T11:38:39.958Z,240
2017-07-21T11:39:39.332Z,230
2017-07-21T11:40:39.650Z,220
2017-07-21T11:41:40.772Z,215
2017-07-21T11:42:39.656Z,220
2017-07-21T11:43:39.661Z,225
2017-07-21T11:44:39.968Z,230
2017-07-21T11:45:39.680Z,225
2017-07-21T11:46:39.377Z,230
2017-07-21T11:47:39.082Z,240
2017-07-21T11:48:39.695Z,235
2017-07-21T11:49:39.728Z,260
2017-07-21T11:50:40.013Z,265
2017-07-21T11:51:39.713Z,260
2017-07-21T11:52:40.026Z,250
2017-07-21T11:53:39.727Z,245
2017-07-21T11:54:39.422Z,240
2017-07-21T11:55:39.434Z,240
2017-07-21T11:56:43.601Z,235
2017-07-21T11:57:40.046Z,195
2017-07-21T11:58:39.758Z,200
2017-07-21T11:59:39.763Z,200
2017-07-21T12:00:39.759Z,215
2017-07-21T12:01:39.780Z,260
2017-07-21T12:02:39.783Z,265
2017-07-21T12:03:40.087Z,230
2017-07-21T12:04:39.794Z,205
2017-07-21T12:05:39.799Z,200
2017-07-21T12:06:39.798Z,195
2017-07-21T12:07:40.113Z,195
2017-07-21T12:08:39.506Z,190
2017-07-21T12:09:39.828Z,195
2017-07-21T12:10:39.851Z,225
2017-07-21T12:11:39.560Z,215
2017-07-21T12:12:39.298Z,240
2017-07-21T12:13:39.873Z,240
2017-07-21T12:14:39.264Z,210
2017-07-21T12:15:39.914Z,240
2017-07-21T12:16:39.572Z,240
2017-07-21T12:17:39.950Z,205
2017-07-21T12:18:39.571Z,200
2017-07-21T12:19:40.184Z,200
2017-07-21T12:20:39.915Z,230
2017-07-21T12:21:40.287Z,225
2017-07-21T12:22:39.920Z,225
2017-07-21T12:23:39.922Z,205
2017-07-21T12:24:39.636Z,230
2017-07-21T12:25:40.227Z,225
2017-07-21T12:26:40.229Z,250
2017-07-21T12:27:43.100Z,250
2017-07-21T12:28:40.244Z,210
2017-07-21T12:29:40.253Z,245
2017-07-21T12:30:40.266Z,255
2017-07-21T12:31:40.268Z,265
2017-07-21T12:32:40.316Z,275
2017-07-21T12:33:40.281Z,280
2017-07-21T12:34:39.981Z,280
2017-07-21T12:35:39.993Z,285
2017-07-21T12:36:39.990Z,280
2017-07-21T12:37:39.995Z,280
2017-07-21T12:38:40.050Z,280
2017-07-21T12:39:40.012Z,280
2017-07-21T12:40:40.318Z,285
2017-07-21T12:41:40.025Z,285
2017-07-21T12:42:41.414Z,290
2017-07-21T12:43:40.035Z,285
2017-07-21T12:44:40.059Z,290
2017-07-21T12:45:40.359Z,295
2017-07-21T12:46:40.063Z,290
2017-07-21T12:47:40.359Z,305
2017-07-21T12:48:40.366Z,290
2017-07-21T12:49:40.080Z,280
2017-07-21T12:50:40.392Z,275
2017-07-21T12:51:40.411Z,275
2017-07-21T12:52:40.140Z,270
2017-07-21T12:53:40.105Z,295
2017-07-21T12:54:40.134Z,265
2017-07-21T12:55:40.114Z,250
2017-07-21T12:56:40.432Z,235
2017-07-21T12:57:41.129Z,225
2017-07-21T12:58:40.144Z,230
2017-07-21T12:59:40.462Z,230
2017-07-21T13:00:40.525Z,220
2017-07-21T13:01:40.167Z,240
2017-07-21T13:02:39.875Z,235
2017-07-21T13:03:40.506Z,215
2017-07-21T13:04:40.196Z,210
2017-07-21T13:05:40.182Z,230
2017-07-21T13:06:40.244Z,230
2017-07-21T13:07:40.509Z,210
2017-07-21T13:08:40.823Z,200
2017-07-21T13:09:42.842Z,200
2017-07-21T13:10:42.647Z,195
2017-07-21T13:11:42.556Z,200
2017-07-21T13:12:45.707Z,195
2017-07-21T13:13:42.574Z,200
2017-07-21T13:14:42.585Z,225
2017-07-21T13:15:42.594Z,240
2017-07-21T13:16:42.589Z,245
2017-07-21T13:17:43.003Z,250
2017-07-21T13:18:42.493Z,250
2017-07-21T13:19:42.612Z,250
2017-07-21T13:20:42.556Z,250
2017-07-21T13:21:42.622Z,250
2017-07-21T13:22:43.137Z,255
2017-07-21T13:23:42.646Z,255
2017-07-21T13:24:42.642Z,255
2017-07-21T13:25:42.541Z,255
2017-07-21T13:26:42.557Z,260
2017-07-21T13:27:42.659Z,265
2017-07-21T13:28:45.792Z,275
2017-07-21T13:29:42.664Z,270
2017-07-21T13:30:42.684Z,270
2017-07-21T13:31:42.686Z,280
2017-07-21T13:32:42.482Z,285
2017-07-21T13:33:42.609Z,275
2017-07-21T13:34:42.509Z,290
2017-07-21T13:35:43.032Z,265
2017-07-21T14:17:26.553Z,180
2017-07-21T14:18:07.882Z,210
2017-07-21T14:19:07.878Z,175
2017-07-21T14:20:07.603Z,190
2017-07-21T14:21:07.898Z,205
2017-07-21T14:22:07.717Z,210
2017-07-21T14:23:07.911Z,210
2017-07-21T14:24:07.613Z,215
2017-07-21T14:25:07.926Z,215
2017-07-21T14:26:07.658Z,220
2017-07-21T14:27:07.636Z,225
2017-07-21T14:28:07.649Z,225
2017-07-21T14:29:07.682Z,230
2017-07-21T14:30:07.769Z,230
2017-07-21T14:31:07.964Z,235
2017-07-21T14:32:07.989Z,240
2017-07-21T14:33:07.995Z,245
2017-07-21T14:34:07.681Z,255
2017-07-21T14:35:07.807Z,260
2017-07-21T14:36:07.502Z,260
2017-07-21T14:37:07.748Z,265
2017-07-21T14:38:07.798Z,265
2017-07-21T14:39:07.225Z,265
2017-07-21T14:40:07.744Z,260
2017-07-21T14:41:08.028Z,245
2017-07-21T14:42:08.032Z,240
2017-07-21T14:43:08.238Z,235
2017-07-21T14:44:08.318Z,230
2017-07-21T14:45:08.182Z,210
2017-07-21T14:46:08.059Z,235
2017-07-21T14:47:07.759Z,230
2017-07-21T14:48:08.136Z,230
2017-07-21T14:49:07.789Z,190
2017-07-21T14:50:08.284Z,180
2017-07-21T14:51:08.096Z,180
2017-07-21T14:52:08.090Z,170
2017-07-21T14:53:07.804Z,170
2017-07-21T14:54:08.114Z,170
2017-07-21T14:55:07.565Z,200
2017-07-21T14:56:08.138Z,200
2017-07-21T14:57:07.529Z,200
2017-07-21T14:58:07.546Z,200
2017-07-21T14:59:07.555Z,205
2017-07-21T15:00:07.945Z,205
2017-07-21T15:01:08.205Z,205
2017-07-21T15:02:08.180Z,205
2017-07-21T15:03:09.772Z,210
2017-07-21T15:04:07.874Z,210
2017-07-21T15:05:07.970Z,210
2017-07-21T15:06:07.594Z,210
2017-07-21T15:07:07.918Z,215
2017-07-21T15:08:08.234Z,220
2017-07-21T15:09:07.918Z,220
2017-07-21T15:10:08.513Z,220
2017-07-21T15:11:08.234Z,225
2017-07-21T15:12:07.935Z,220
2017-07-21T15:13:07.335Z,225
2017-07-21T15:14:07.965Z,215
2017-07-21T15:15:08.532Z,215
2017-07-21T15:16:07.976Z,220
2017-07-21T15:17:07.959Z,215
2017-07-21T15:18:08.021Z,210
2017-07-21T15:19:07.698Z,200
2017-07-21T15:20:08.602Z,195
2017-07-21T15:21:08.191Z,170
2017-07-21T15:22:07.997Z,195
2017-07-21T15:23:07.995Z,175
2017-07-21T15:24:08.320Z,170
2017-07-21T15:25:08.244Z,190
2017-07-21T15:26:07.713Z,190
2017-07-21T15:27:08.034Z,190
2017-07-21T15:28:08.331Z,185
2017-07-21T15:29:08.333Z,160
2017-07-21T15:30:07.444Z,165
2017-07-21T15:31:08.055Z,190
2017-07-21T15:32:07.755Z,165
2017-07-21T15:33:11.451Z,165
2017-07-21T15:34:08.393Z,175
2017-07-21T15:35:08.235Z,180
2017-07-21T15:36:07.791Z,190
2017-07-21T15:37:08.084Z,190
2017-07-21T15:38:07.500Z,190
2017-07-21T15:39:07.807Z,190
2017-07-21T15:40:08.793Z,190
2017-07-21T15:41:08.419Z,190
2017-07-21T15:42:08.423Z,190
2017-07-21T15:43:07.826Z,190
2017-07-21T15:44:07.856Z,190
2017-07-21T15:45:08.644Z,190
2017-07-21T15:46:07.873Z,190
2017-07-21T15:47:08.462Z,190
2017-07-21T15:48:08.517Z,190
2017-07-21T15:49:08.180Z,195
2017-07-21T15:50:08.171Z,190
2017-07-21T15:51:08.476Z,190
2017-07-21T15:52:08.200Z,190
2017-07-21T15:53:07.588Z,190
2017-07-21T15:54:08.493Z,190
2017-07-21T15:55:08.518Z,190
2017-07-21T15:56:08.225Z,185
2017-07-21T15:57:08.534Z,185
2017-07-21T15:58:08.241Z,185
2017-07-21T15:59:08.538Z,185
2017-07-21T16:00:09.640Z,185
2017-07-21T16:01:09.118Z,180
2017-07-21T16:02:11.837Z,185
2017-07-21T16:03:10.282Z,185
2017-07-21T16:04:14.090Z,190
2017-07-21T16:05:09.588Z,195
2017-07-21T16:06:08.696Z,195
2017-07-21T16:07:08.672Z,190
2017-07-21T16:08:09.593Z,180
2017-07-21T16:09:08.344Z,180
2017-07-21T16:10:08.639Z,170
2017-07-21T16:11:08.022Z,170
2017-07-21T16:12:08.323Z,160
2017-07-21T16:13:08.630Z,150
2017-07-21T16:14:08.326Z,145
2017-07-21T16:15:08.228Z,135
2017-07-21T16:16:07.757Z,135
2017-07-21T16:17:08.657Z,135
2017-07-21T16:18:07.758Z,135
2017-07-21T16:19:08.434Z,140
2017-07-21T16:20:08.502Z,150
2017-07-21T16:21:08.369Z,160
2017-07-21T16:22:08.376Z,175
2017-07-21T16:23:08.385Z,180
2017-07-21T16:24:08.861Z,185
2017-07-21T16:25:08.227Z,185
2017-07-21T16:26:08.714Z,185
2017-07-21T16:27:08.423Z,180
2017-07-21T16:28:08.419Z,180
2017-07-21T16:29:08.189Z,175
2017-07-21T16:30:08.700Z,170
2017-07-21T16:31:07.835Z,165
2017-07-21T16:32:08.447Z,160
2017-07-21T16:33:08.174Z,155
2017-07-21T16:34:12.457Z,150
2017-07-21T16:35:08.586Z,150
2017-07-21T16:36:08.767Z,150
2017-07-21T16:37:08.493Z,150
2017-07-21T16:38:08.494Z,155
2017-07-21T16:39:08.494Z,160
2017-07-21T16:40:09.261Z,160
2017-07-21T16:41:08.498Z,165
2017-07-21T16:42:08.824Z,165
2017-07-21T16:43:08.561Z,170
2017-07-21T16:44:08.512Z,175
2017-07-21T16:45:08.929Z,175
2017-07-21T16:46:07.939Z,175
2017-07-21T16:47:08.839Z,180
2017-07-21T16:48:08.843Z,175
2017-07-21T16:49:08.864Z,175
2017-07-21T16:50:08.493Z,175
2017-07-21T16:51:08.873Z,180
2017-07-21T16:52:08.877Z,175
2017-07-21T16:53:08.574Z,170
2017-07-21T16:54:08.881Z,170
2017-07-21T16:55:08.610Z,170
2017-07-21T16:56:08.635Z,170
2017-07-21T16:57:08.914Z,165
2017-07-21T16:58:08.612Z,165
2017-07-21T16:59:08.652Z,160
2017-07-21T17:00:08.886Z,160
2017-07-21T17:01:08.949Z,155
2017-07-21T17:02:08.643Z,150
2017-07-21T17:03:08.949Z,150
2017-07-21T17:04:08.367Z,150
2017-07-21T17:05:11.375Z,145
2017-07-21T17:06:08.976Z,145
2017-07-21T17:07:08.377Z,145
2017-07-21T17:08:08.697Z,140